• Join FlightAware (Why Join?)
  • Login
  • US Flag 
04:11AM EST


 

Airport Tracker/Info


-or-


 

Live Flight TrackerFlight Track Log ✈ N246MP ✈ 18-Aug-2013 ✈ KBGR - KPQI

Flight Track Log - Related Links

Times and Time Zones

All times are in EDT time to prevent confusion due to time zone crossing. See the N246MP flight status page for this flight to view local times or setup timezone preferences in your user account.

Time Position Orientation Groundspeed Altitude Reporting Facility
EDT Latitude Longitude Course Direction KTS MPH feet Rate Location/Type
08:43AM 46.0519 -69.5431 16° North 163 188 17,500  Level Boston Center
08:44AM 46.0369 -69.6036 250° West 168 193 17,500  Level Boston Center
08:45AM 46.0194 -69.6583 245° Southwest 173 199 17,500  Level Boston Center
08:46AM 45.9789 -69.7019 217° Southwest 168 193 17,500  Level Boston Center
08:47AM 45.9422 -69.7425 218° Southwest 173 199 17,500  Level Boston Center
08:48AM 45.9100 -69.7917 227° Southwest 173 199 17,500  Level Boston Center
08:49AM 45.2185 -68.6617 16° North  Level Estimated
08:49AM 45.9472 -69.7781 14° North 42 48 17,500  Level Boston Center
08:50AM 45.9811 -69.8006 335° Northwest 73 84 17,500  Level Boston Center
08:52AM 45.9375 -69.8083 187° South 61 70 17,600  Climbing Boston Center
08:53AM 45.8728 -69.7964 173° South 158 182 17,500 -60 Descending Boston Center
08:54AM 45.8206 -69.7958 180° South 174 200 17,500  Level Boston Center
08:55AM 45.7642 -69.7925 178° South 196 226 17,500  Level Boston Center
08:56AM 45.7122 -69.7919 180° South 196 226 17,500  Level Boston Center
08:57AM 45.6886 -69.8525 241° Southwest 156 180 17,500  Level Boston Center
08:58AM 45.6606 -69.9014 231° Southwest 156 180 17,500  Level Boston Center
08:59AM 45.6444 -69.9347 235° Southwest 161 185 17,600  Climbing Boston Center
09:00AM 45.6919 -69.9089 21° North 60 69 17,500 -60 Descending Boston Center
09:01AM 45.7400 -69.9128 357° North 112 129 17,500  Level Boston Center
09:02AM 45.7939 -69.9103 North 154 177 17,500  Level Boston Center
09:03AM 45.8439 -69.9111 359° North 176 203 17,500  Level Boston Center
09:04AM 45.8961 -69.9147 357° North 182 209 17,500  Level Boston Center
09:05AM 45.9442 -69.9156 359° North 175 201 17,500  Level Boston Center
09:06AM 45.9939 -69.9164 359° North 180 207 17,500  Level Boston Center
09:07AM 46.0439 -69.9172 359° North 180 207 17,500  Level Boston Center
09:08AM 46.0942 -69.9208 357° North 180 207 17,500  Level Boston Center
09:09AM 46.1461 -69.9214 360° North 180 207 17,500  Level Boston Center
09:10AM 46.1961 -69.9192 North 180 207 17,500  Level Boston Center
09:11AM 46.2439 -69.9172 North 180 207 17,500  Level Boston Center
09:12AM 46.2961 -69.9208 357° North 180 207 17,500  Level Boston Center
09:13AM 46.3503 -69.9214 360° North 180 207 17,500  Level Boston Center
09:14AM 46.4003 -69.9253 357° North 180 207 17,500  Level Boston Center
09:15AM 46.4522 -69.9258 360° North 180 207 17,500  Level Boston Center
09:16AM 46.5022 -69.9236 North 180 207 17,500  Level Boston Center
09:17AM 46.5544 -69.9272 357° North 180 207 17,500 -60 Level Boston Center
09:18AM 46.6044 -69.9281 359° North 180 207 17,400 -60 Descending Boston Center
09:19AM 46.6564 -69.9286 360° North 180 207 17,400  Level Boston Center
09:20AM 46.6511 -69.9803 262° West 93 107 17,400  Level Boston Center
09:21AM 46.6014 -69.9917 189° South 103 119 17,400  Level Boston Center
09:22AM 46.5472 -69.9881 177° South 144 166 17,500  Climbing Boston Center
09:23AM 46.4931 -69.9872 179° South 178 205 17,500  Level Boston Center
09:24AM 46.4389 -69.9867 180° South 190 219 17,500  Level Boston Center
09:25AM 46.3764 -69.9833 178° South 195 224 17,500  Level Boston Center
09:26AM 46.3222 -69.9828 180° South 195 224 17,500  Level Boston Center
09:27AM 46.2725 -69.9819 179° South 195 224 17,500  Level Boston Center
09:28AM 46.2203 -69.9811 179° South 195 224 17,500  Level Boston Center
09:29AM 46.1661 -69.9775 177° South 195 224 17,500  Level Boston Center
09:30AM 46.1119 -69.9800 182° South 195 224 17,500  Level Boston Center
09:31AM 46.0514 -69.9767 178° South 195 224 17,500  Level Boston Center
09:32AM 46.0036 -69.9756 179° South 195 224 17,500  Level Boston Center
09:33AM 45.9494 -69.9781 182° South 195 224 17,500  Level Boston Center
09:34AM 45.8953 -69.9714 175° South 195 224 17,500  Level Boston Center
09:35AM 45.8433 -69.9767 184° South 195 224 17,500  Level Boston Center
09:36AM 45.7889 -69.9700 175° South 195 224 17,500  Level Boston Center
09:37AM 45.7350 -69.9725 182° South 195 224 17,500  Level Boston Center
09:38AM 45.6806 -69.9600 171° South 195 224 17,500  Level Boston Center
09:39AM 45.6544 -70.0056 231° Southwest 150 173 17,500  Level Boston Center
09:40AM 45.6967 -70.0336 335° Northwest 68 78 17,500  Level Boston Center
09:41AM 45.7486 -70.0314 North 114 131 17,500  Level Boston Center
09:42AM 45.8008 -70.0319 360° North 155 178 17,500  Level Boston Center
09:43AM 45.8508 -70.0331 359° North 175 201 17,500  Level Boston Center
09:44AM 45.9028 -70.0367 357° North 180 207 17,500  Level Boston Center
09:45AM 45.9528 -70.0375 359° North 180 207 17,500  Level Boston Center
09:46AM 46.0028 -70.0356 North 180 207 17,500  Level Boston Center
09:47AM 46.0528 -70.0364 359° North 180 207 17,500  Level Boston Center
09:48AM 46.1028 -70.0372 359° North 180 207 17,500  Level Boston Center
09:49AM 46.1528 -70.0411 357° North 180 207 17,500  Level Boston Center
09:50AM 46.2028 -70.0389 North 180 207 17,500  Level Boston Center
09:51AM 46.2550 -70.0428 357° North 180 207 17,500  Level Boston Center
09:52AM 46.3050 -70.0436 359° North 180 207 17,500  Level Boston Center
09:53AM 46.3569 -70.0444 359° North 180 207 17,500  Level Boston Center
09:54AM 46.4092 -70.0481 357° North 180 207 17,500  Level Boston Center
09:55AM 46.4589 -70.0461 North 180 207 17,500  Level Boston Center
09:56AM 46.5111 -70.0469 359° North 180 207 17,500  Level Boston Center
09:57AM 46.5611 -70.0508 357° North 180 207 17,500 -60 Level Boston Center
09:58AM 46.6131 -70.0514 360° North 180 207 17,400 -60 Descending Boston Center
09:59AM 46.6119 -70.1000 268° West 100 115 17,400  Level Boston Center
10:00AM 46.5622 -70.1081 186° South 76 87 17,500  Climbing Boston Center
10:01AM 46.5081 -70.1072 179° South 142 163 17,500  Level Boston Center
10:02AM 46.4539 -70.1064 179° South 172 198 17,500  Level Boston Center
10:03AM 46.3997 -70.1058 180° South 191 220 17,500  Level Boston Center
10:04AM 46.3497 -70.1047 179° South 198 228 17,500  Level Boston Center
10:05AM 46.2936 -70.1011 177° South 198 228 17,500  Level Boston Center
10:06AM 46.2394 -70.1003 179° South 198 228 17,500  Level Boston Center
10:07AM 46.1875 -70.1025 182° South 198 228 17,500  Level Boston Center
10:08AM 46.1353 -70.0986 177° South 198 228 17,500  Level Boston Center
10:09AM 46.0811 -70.1008 182° South 198 228 17,500  Level Boston Center
10:10AM 46.0311 -70.1000 179° South 198 228 17,500  Level Boston Center
10:11AM 45.9872 -70.0928 173° South 198 228 17,500  Level Boston Center
10:12AM 45.9228 -70.0956 182° South 198 228 17,500  Level Boston Center
10:13AM 45.8708 -70.0947 179° South 198 228 17,500  Level Boston Center
10:14AM 45.8164 -70.0908 177° South 198 228 17,500  Level Boston Center
10:15AM 45.7644 -70.0931 182° South 198 228 17,500  Level Boston Center
10:16AM 45.7081 -70.0894 177° South 198 228 17,500  Level Boston Center
10:17AM 45.6561 -70.0944 184° South 193 222 17,500  Level Boston Center
10:18AM 45.6678 -70.1506 287° West 104 120 17,500  Level Boston Center
10:19AM 45.7219 -70.1514 359° North 108 124 17,500  Level Boston Center
10:20AM 45.7739 -70.1522 359° North 135 155 17,500  Level Boston Center
10:21AM 45.8156 -70.1536 359° North 163 188 17,500  Level Boston Center
10:22AM 45.8781 -70.1539 360° North 182 209 17,500  Level Boston Center
10:23AM 45.9283 -70.1581 357° North 182 209 17,500  Level Boston Center
10:24AM 45.9803 -70.1589 359° North 182 209 17,500  Level Boston Center
10:25AM 46.0322 -70.1597 359° North 182 209 17,500  Level Boston Center
10:26AM 46.0822 -70.1606 359° North 177 204 17,500  Level Boston Center
10:27AM 46.1303 -70.1589 North 177 204 17,500  Level Boston Center
10:28AM 46.1822 -70.1628 357° North 177 204 17,500  Level Boston Center
10:29AM 46.2303 -70.1608 North 177 204 17,500  Level Boston Center
10:30AM 46.2822 -70.1647 357° North 177 204 17,500  Level Boston Center
10:31AM 46.3322 -70.1686 357° North 177 204 17,500  Level Boston Center
10:32AM 46.3822 -70.1667 North 177 204 17,500  Level Boston Center
10:33AM 46.4344 -70.1675 359° North 177 204 17,500  Level Boston Center
10:34AM 46.4864 -70.1683 359° North 177 204 17,500  Level Boston Center
10:35AM 46.5339 -70.1514 14° North 177 204 17,500  Level Boston Center
10:36AM 46.5308 -70.2028 265° West 90 104 17,600  Climbing Boston Center
10:37AM 46.4875 -70.2256 200° South 90 104 17,500 -60 Descending Boston Center
10:38AM 46.4208 -70.2222 178° South 146 168 17,500  Level Boston Center
10:39AM 46.3667 -70.2244 182° South 182 209 17,500  Level Boston Center
10:40AM 46.3022 -70.2208 178° South 195 224 17,500  Level Boston Center
10:41AM 46.2478 -70.2169 177° South 195 224 17,500  Level Boston Center
10:42AM 46.1939 -70.2192 182° South 195 224 17,500  Level Boston Center
10:43AM 46.1397 -70.2183 179° South 195 224 17,500  Level Boston Center
10:44AM 46.0833 -70.2144 177° South 200 230 17,500  Level Boston Center
10:46AM 46.0901 -70.1912 67° East  Level Estimated
10:46AM 45.9833 -70.2125 67° East 193 222 17,500  Level Boston Center
10:47AM 45.9314 -70.2114 179° South 198 228 17,500  Level Boston Center
10:48AM 45.8750 -70.2108 180° South 198 228 17,500  Level Boston Center
10:49AM 45.8231 -70.2128 181° South 198 228 17,500  Level Boston Center
10:50AM 45.7689 -70.2089 177° South 198 228 17,500  Level Boston Center
10:51AM 45.7167 -70.2081 179° South 198 228 17,500  Level Boston Center
10:52AM 45.6647 -70.2042 177° South 198 228 17,500  Level Boston Center
10:53AM 45.6781 -70.2569 290° West 99 114 17,500  Level Boston Center
10:55AM 45.7261 -70.2611 357° North 78 90 17,500  Level Boston Center
10:56AM 45.7906 -70.2617 360° North 136 157 17,500  Level Boston Center
10:57AM 45.8428 -70.2656 357° North 163 188 17,500  Level Boston Center
10:58AM 45.8928 -70.2667 359° North 179 206 17,500  Level Boston Center
10:59AM 45.9469 -70.2675 359° North 179 206 17,500 -60 Level Boston Center
11:00AM 45.9969 -70.2686 359° North 179 206 17,400 -60 Descending Boston Center
11:01AM 46.0469 -70.2758 354° North 179 206 17,400  Level Boston Center
11:02AM 46.0969 -70.2708 North 179 206 17,400  Level Boston Center
11:03AM 46.1489 -70.2719 359° North 179 206 17,400  Level Boston Center
11:04AM 46.1989 -70.2731 359° North 179 206 17,400  Level Boston Center
11:05AM 46.2511 -70.2739 359° North 179 206 17,400  Level Boston Center
11:06AM 46.3031 -70.2778 357° North 179 206 17,400  Level Boston Center
11:07AM 46.3531 -70.2761 North 179 206 17,400  Level Boston Center
11:08AM 46.4031 -70.2800 357° North 179 206 17,400  Level Boston Center
11:09AM 46.4350 -70.3119 325° Northwest 138 159 17,400  Level Boston Center
11:10AM 46.3894 -70.3347 199° South 62 71 17,500  Climbing Boston Center
11:11AM 46.3356 -70.3339 179° South 107 123 17,400 -60 Descending Boston Center
11:12AM 46.2814 -70.3358 181° South 165 190 17,400  Level Boston Center
11:13AM 46.2272 -70.3319 177° South 183 211 17,400  Level Boston Center
11:14AM 46.1708 -70.3281 177° South 194 223 17,400  Level Boston Center
11:15AM 46.1167 -70.3269 179° South 199 229 17,400  Level Boston Center
11:16AM 46.0500 -70.3264 180° South 199 229 17,400  Level Boston Center
11:17AM 46.0000 -70.3222 177° South 199 229 17,400  Level Boston Center
11:18AM 45.9481 -70.3242 181° South 199 229 17,400  Level Boston Center
11:19AM 45.8814 -70.3239 180° South 199 229 17,400  Level Boston Center
11:20AM 45.8147 -70.3203 178° South 199 229 17,400  Level Boston Center
11:21AM 45.7625 -70.3192 179° South 199 229 17,500  Climbing Boston Center
11:22AM 45.7083 -70.3153 177° South 199 229 17,500  Level Boston Center
11:23AM 45.6583 -70.3083 174° South 199 229 17,500  Level Boston Center
11:24AM 45.6489 -70.3622 256° West 151 174 17,500  Level Boston Center
11:25AM 45.6989 -70.3722 352° North 76 87 17,500  Level Boston Center
11:26AM 45.7531 -70.3731 359° North 142 163 17,500 -60 Level Boston Center
11:27AM 45.8011 -70.3744 359° North 163 188 17,400 -60 Descending Boston Center
11:28AM 45.8531 -70.3783 357° North 178 205 17,400  Level Boston Center
11:29AM 45.9053 -70.3767 North 178 205 17,400  Level Boston Center
11:30AM 45.9553 -70.3808 357° North 178 205 17,400  Level Boston Center
11:31AM 46.0053 -70.3819 359° North 178 205 17,400  Level Boston Center
11:32AM 46.0636 -70.3828 359° North 178 205 17,400  Level Boston Center
11:33AM 46.1156 -70.3839 359° North 178 205 17,400  Level Boston Center
11:34AM 46.1247 -70.4344 285° West 136 157 17,400  Level Boston Center
11:35AM 46.0686 -70.4333 179° South 78 90 17,500  Climbing Boston Center
11:36AM 46.0144 -70.4353 181° South 143 165 17,400 -60 Descending Boston Center
11:37AM 45.9625 -70.4372 181° South 177 204 17,400  Level Boston Center
11:38AM 45.9061 -70.4331 177° South 197 227 17,400  Level Boston Center
11:39AM 45.8500 -70.4322 179° South 203 234 17,400  Level Boston Center
11:40AM 45.7978 -70.4311 179° South 203 234 17,400  Level Boston Center
11:41AM 45.7417 -70.4300 179° South 196 226 17,500  Climbing Boston Center
11:42AM 45.6894 -70.4200 172° South 196 226 17,500  Level Boston Center
11:43AM 45.6881 -70.3489 92° East 144 166 17,500  Level Boston Center
11:44AM 45.7419 -70.3261 16° North 94 108 17,600 -60 Climbing Boston Center
11:45AM 45.7914 -70.3064 16° North 140 161 17,400 -120 Descending Boston Center
11:46AM 45.8453 -70.2833 17° North 173 199 17,400  Level Boston Center
11:47AM 45.8969 -70.2606 17° North 187 215 17,400  Level Boston Center
11:48AM 45.9486 -70.2436 13° North 187 215 17,400  Level Boston Center
11:49AM 45.9919 -70.2300 12° North 187 215 17,400  Level Boston Center
11:50AM 46.0386 -70.1625 45° Northeast 187 215 17,400  Level Boston Center
11:51AM 46.0750 -70.1011 49° Northeast 193 222 17,400  Level Boston Center
11:52AM 46.1175 -70.0425 44° Northeast 193 222 17,400  Level Boston Center
11:53AM 46.1536 -69.9750 52° Northeast 200 230 17,400  Level Boston Center
11:54AM 46.1875 -69.9078 54° Northeast 205 236 17,400  Level Boston Center
11:55AM 46.2236 -69.8431 51° Northeast 205 236 17,400  Level Boston Center
11:56AM 46.2594 -69.7753 53° Northeast 210 242 17,400  Level Boston Center
11:57AM 46.2975 -69.7075 51° Northeast 210 242 17,400  Level Boston Center
11:58AM 46.3314 -69.6397 54° Northeast 210 242 17,400  Level Boston Center
11:59AM 46.3672 -69.5719 53° Northeast 210 242 17,400  Level Boston Center
12:00PM 46.4008 -69.5039 54° Northeast 210 242 17,400  Level Boston Center
12:01PM 46.4367 -69.4358 53° Northeast 210 242 17,400  Level Boston Center
12:02PM 46.4658 -69.3589 61° Northeast 210 242 17,400  Level Boston Center
12:03PM 46.5128 -69.3200 30° Northeast 194 223 17,500  Climbing Boston Center
12:05PM 46.5171 -69.2903 78° East  Level Estimated
12:05PM 46.6153 -69.2661 78° East 194 223 17,400  Level Boston Center
12:06PM 46.6158 -69.2025 89° East 119 137 17,400  Level Boston Center
12:07PM 46.5856 -69.2467 225° Southwest 32 37 17,400  Level Boston Center
12:08PM 46.5486 -69.1825 130° Southeast 113 130 17,400 -120 Level Boston Center
12:09PM 46.5569 -69.1064 81° East 153 176 17,200 -540 Descending Boston Center
12:10PM 46.5703 -68.9969 80° East 199 229 16,400 -900 Descending Boston Center
12:11PM 46.5800 -68.8997 82° East 224 258 15,500 -900 Descending Boston Center
12:12PM 46.5919 -68.8144 78° East 229 264 14,600 -1,020 Descending Boston Center
12:13PM 46.6019 -68.7414 79° East 206 237 13,500 -1,200 Descending Boston Center
12:14PM 46.6122 -68.6650 79° East 196 226 12,300 -1,260 Descending Boston Center
12:15PM 46.6222 -68.5889 79° East 186 214 11,000 -1,320 Descending Boston Center
12:16PM 46.6303 -68.5158 81° East 181 208 9,700 -1,320 Descending Boston Center
12:17PM 46.6400 -68.4394 79° East 181 208 8,500 -1,200 Descending Boston Center
12:18PM 46.6417 -68.3669 88° East 181 208 7,400 -1,140 Descending Boston Center
12:20PM 46.6424 -68.3411 87° East  Level FlightAware Approximate